Hope, Kansas
Current Conditions -  °F | °C
As of 7:58 PM on Friday 19 Dec 2014 (Local Time) from KFRI Reporting Station
Overcast Overcast  
Wind Chill: 30°   Ceiling: 1600
Heat Index: 35°   Visibility: 10mi
Dew Point: 32°   Wind: 6mph
Humidity: 91%   Direction: 180°S
Pressure: 30.17"   Gusts: NA
Location:  38.69°N, 97.08°W
Report Text: KFRI 200158Z AUTO 18005KT 10SM OVC016 02/00 A3017 RMK AO2 SLP226 T00160002
Loading
Personal Weather Stations






























Interactive Weather Map New forecast layout! Learn more

10-Day Weather Forecast

Advertisements
Track Severe Weather on mobile